sensor_id;sensor_type;location;lat;lon;timestamp;P1;durP1;ratioP1;P2;durP2;ratioP2
52534;SDS011;38443;53.164;5.802;2023-05-15T00:00:39;23.65;;;14.20;;
52534;SDS011;38443;53.164;5.802;2023-05-15T00:03:05;22.30;;;13.55;;
52534;SDS011;38443;53.164;5.802;2023-05-15T00:07:56;24.42;;;14.30;;
52534;SDS011;38443;53.164;5.802;2023-05-15T00:10:22;28.85;;;14.43;;
52534;SDS011;38443;53.164;5.802;2023-05-15T00:12:47;27.65;;;13.95;;
52534;SDS011;38443;53.164;5.802;2023-05-15T00:15:13;25.67;;;14.60;;
52534;SDS011;38443;53.164;5.802;2023-05-15T00:20:04;23.08;;;13.43;;
52534;SDS011;38443;53.164;5.802;2023-05-15T00:22:31;28.00;;;15.68;;
52534;SDS011;38443;53.164;5.802;2023-05-15T00:27:23;25.47;;;13.87;;
52534;SDS011;38443;53.164;5.802;2023-05-15T00:32:14;20.27;;;12.90;;
52534;SDS011;38443;53.164;5.802;2023-05-15T00:37:04;24.17;;;13.20;;
52534;SDS011;38443;53.164;5.802;2023-05-15T00:41:55;23.83;;;14.07;;
52534;SDS011;38443;53.164;5.802;2023-05-15T00:44:22;26.75;;;14.07;;
52534;SDS011;38443;53.164;5.802;2023-05-15T00:46:49;26.75;;;14.95;;
52534;SDS011;38443;53.164;5.802;2023-05-15T00:49:16;25.75;;;13.75;;
52534;SDS011;38443;53.164;5.802;2023-05-15T00:51:42;21.45;;;13.10;;
52534;SDS011;38443;53.164;5.802;2023-05-15T00:56:34;31.25;;;15.55;;
52534;SDS011;38443;53.164;5.802;2023-05-15T00:59:00;27.10;;;13.48;;
52534;SDS011;38443;53.164;5.802;2023-05-15T01:01:27;28.77;;;14.88;;
52534;SDS011;38443;53.164;5.802;2023-05-15T01:03:57;29.02;;;15.00;;
52534;SDS011;38443;53.164;5.802;2023-05-15T01:08:48;25.50;;;14.55;;
52534;SDS011;38443;53.164;5.802;2023-05-15T01:11:14;27.48;;;15.60;;
52534;SDS011;38443;53.164;5.802;2023-05-15T01:13:41;27.60;;;15.57;;
52534;SDS011;38443;53.164;5.802;2023-05-15T01:18:33;29.08;;;15.10;;
52534;SDS011;38443;53.164;5.802;2023-05-15T01:29:07;28.90;;;15.30;;
52534;SDS011;38443;53.164;5.802;2023-05-15T01:31:43;26.48;;;15.45;;
52534;SDS011;38443;53.164;5.802;2023-05-15T01:34:16;31.63;;;16.10;;
52534;SDS011;38443;53.164;5.802;2023-05-15T01:36:45;33.33;;;16.13;;
52534;SDS011;38443;53.164;5.802;2023-05-15T01:39:16;32.08;;;15.80;;
52534;SDS011;38443;53.164;5.802;2023-05-15T01:44:21;33.88;;;17.42;;
52534;SDS011;38443;53.164;5.802;2023-05-15T01:46:53;35.55;;;18.67;;
52534;SDS011;38443;53.164;5.802;2023-05-15T01:49:22;37.33;;;18.88;;
52534;SDS011;38443;53.164;5.802;2023-05-15T01:51:51;34.78;;;17.30;;
52534;SDS011;38443;53.164;5.802;2023-05-15T01:54:23;33.42;;;16.23;;
52534;SDS011;38443;53.164;5.802;2023-05-15T01:59:15;31.52;;;16.10;;
52534;SDS011;38443;53.164;5.802;2023-05-15T02:04:06;31.73;;;16.75;;
52534;SDS011;38443;53.164;5.802;2023-05-15T02:06:33;31.20;;;16.70;;
52534;SDS011;38443;53.164;5.802;2023-05-15T02:09:00;30.30;;;16.50;;
52534;SDS011;38443;53.164;5.802;2023-05-15T02:11:26;28.95;;;15.88;;
52534;SDS011;38443;53.164;5.802;2023-05-15T02:16:19;29.50;;;17.27;;
52534;SDS011;38443;53.164;5.802;2023-05-15T02:21:09;26.10;;;14.23;;
52534;SDS011;38443;53.164;5.802;2023-05-15T02:23:35;24.85;;;14.50;;
52534;SDS011;38443;53.164;5.802;2023-05-15T02:28:53;26.52;;;14.52;;
52534;SDS011;38443;53.164;5.802;2023-05-15T02:31:30;27.15;;;16.55;;
52534;SDS011;38443;53.164;5.802;2023-05-15T02:34:04;28.25;;;15.02;;
52534;SDS011;38443;53.164;5.802;2023-05-15T02:36:43;26.02;;;15.20;;
52534;SDS011;38443;53.164;5.802;2023-05-15T02:39:11;30.67;;;16.13;;
52534;SDS011;38443;53.164;5.802;2023-05-15T02:41:39;26.98;;;15.32;;
52534;SDS011;38443;53.164;5.802;2023-05-15T02:44:05;29.42;;;15.65;;
52534;SDS011;38443;53.164;5.802;2023-05-15T02:46:32;31.55;;;16.83;;
52534;SDS011;38443;53.164;5.802;2023-05-15T02:48:58;31.05;;;18.48;;
52534;SDS011;38443;53.164;5.802;2023-05-15T02:53:49;30.67;;;17.35;;
52534;SDS011;38443;53.164;5.802;2023-05-15T02:56:15;29.85;;;16.40;;
52534;SDS011;38443;53.164;5.802;2023-05-15T03:01:05;38.53;;;19.50;;
52534;SDS011;38443;53.164;5.802;2023-05-15T03:05:56;33.33;;;18.65;;
52534;SDS011;38443;53.164;5.802;2023-05-15T03:10:47;32.93;;;17.60;;
52534;SDS011;38443;53.164;5.802;2023-05-15T03:15:37;33.57;;;17.07;;
52534;SDS011;38443;53.164;5.802;2023-05-15T03:20:28;35.45;;;17.15;;
52534;SDS011;38443;53.164;5.802;2023-05-15T03:25:18;32.17;;;18.20;;
52534;SDS011;38443;53.164;5.802;2023-05-15T03:30:09;29.85;;;16.77;;
52534;SDS011;38443;53.164;5.802;2023-05-15T03:35:00;26.90;;;15.10;;
52534;SDS011;38443;53.164;5.802;2023-05-15T03:39:50;28.03;;;15.20;;
52534;SDS011;38443;53.164;5.802;2023-05-15T03:44:47;27.67;;;15.05;;
52534;SDS011;38443;53.164;5.802;2023-05-15T03:49:38;29.30;;;14.90;;
52534;SDS011;38443;53.164;5.802;2023-05-15T03:54:29;31.15;;;16.25;;
52534;SDS011;38443;53.164;5.802;2023-05-15T03:56:54;31.00;;;15.52;;
52534;SDS011;38443;53.164;5.802;2023-05-15T03:59:20;36.28;;;17.55;;
52534;SDS011;38443;53.164;5.802;2023-05-15T04:04:11;32.83;;;18.27;;
52534;SDS011;38443;53.164;5.802;2023-05-15T04:09:01;34.60;;;17.60;;
52534;SDS011;38443;53.164;5.802;2023-05-15T04:13:52;31.83;;;15.18;;
52534;SDS011;38443;53.164;5.802;2023-05-15T04:18:43;32.40;;;16.73;;
52534;SDS011;38443;53.164;5.802;2023-05-15T04:21:09;33.28;;;17.73;;
52534;SDS011;38443;53.164;5.802;2023-05-15T04:26:00;30.80;;;16.15;;
52534;SDS011;38443;53.164;5.802;2023-05-15T04:28:25;34.38;;;17.63;;
52534;SDS011;38443;53.164;5.802;2023-05-15T04:33:16;32.47;;;17.07;;
52534;SDS011;38443;53.164;5.802;2023-05-15T04:38:07;29.65;;;16.38;;
52534;SDS011;38443;53.164;5.802;2023-05-15T04:42:57;31.13;;;16.43;;
52534;SDS011;38443;53.164;5.802;2023-05-15T04:47:48;30.35;;;17.13;;
52534;SDS011;38443;53.164;5.802;2023-05-15T04:50:14;31.55;;;16.92;;
52534;SDS011;38443;53.164;5.802;2023-05-15T04:55:05;36.05;;;17.95;;
52534;SDS011;38443;53.164;5.802;2023-05-15T04:57:30;34.80;;;17.05;;
52534;SDS011;38443;53.164;5.802;2023-05-15T04:59:56;32.55;;;17.13;;
52534;SDS011;38443;53.164;5.802;2023-05-15T05:02:22;30.85;;;16.40;;
52534;SDS011;38443;53.164;5.802;2023-05-15T05:07:13;33.17;;;18.55;;
52534;SDS011;38443;53.164;5.802;2023-05-15T05:09:38;29.55;;;17.42;;
52534;SDS011;38443;53.164;5.802;2023-05-15T05:14:30;28.87;;;16.97;;
52534;SDS011;38443;53.164;5.802;2023-05-15T05:16:56;28.20;;;15.13;;
52534;SDS011;38443;53.164;5.802;2023-05-15T05:21:46;27.13;;;14.47;;
52534;SDS011;38443;53.164;5.802;2023-05-15T05:26:37;23.93;;;15.03;;
52534;SDS011;38443;53.164;5.802;2023-05-15T05:31:27;26.93;;;15.30;;
52534;SDS011;38443;53.164;5.802;2023-05-15T05:36:18;27.60;;;14.50;;
52534;SDS011;38443;53.164;5.802;2023-05-15T05:41:08;28.50;;;15.90;;
52534;SDS011;38443;53.164;5.802;2023-05-15T05:43:34;28.23;;;16.13;;
52534;SDS011;38443;53.164;5.802;2023-05-15T05:46:00;29.52;;;15.05;;
52534;SDS011;38443;53.164;5.802;2023-05-15T05:48:26;23.92;;;14.25;;
52534;SDS011;38443;53.164;5.802;2023-05-15T05:50:51;23.13;;;13.68;;
52534;SDS011;38443;53.164;5.802;2023-05-15T05:53:16;21.60;;;14.18;;
52534;SDS011;38443;53.164;5.802;2023-05-15T05:55:42;21.00;;;13.45;;
52534;SDS011;38443;53.164;5.802;2023-05-15T05:58:07;19.75;;;11.75;;
52534;SDS011;38443;53.164;5.802;2023-05-15T06:00:33;20.25;;;12.70;;
52534;SDS011;38443;53.164;5.802;2023-05-15T06:02:58;22.17;;;13.18;;
52534;SDS011;38443;53.164;5.802;2023-05-15T06:05:24;18.65;;;11.90;;
52534;SDS011;38443;53.164;5.802;2023-05-15T06:07:50;14.20;;;9.30;;
52534;SDS011;38443;53.164;5.802;2023-05-15T06:10:16;15.70;;;10.32;;
52534;SDS011;38443;53.164;5.802;2023-05-15T06:12:42;17.80;;;9.85;;
52534;SDS011;38443;53.164;5.802;2023-05-15T06:15:08;18.50;;;11.05;;
52534;SDS011;38443;53.164;5.802;2023-05-15T06:17:34;14.55;;;10.35;;
52534;SDS011;38443;53.164;5.802;2023-05-15T06:19:59;16.08;;;10.43;;
52534;SDS011;38443;53.164;5.802;2023-05-15T06:22:24;21.15;;;11.48;;
52534;SDS011;38443;53.164;5.802;2023-05-15T06:24:50;21.00;;;11.57;;
52534;SDS011;38443;53.164;5.802;2023-05-15T06:27:15;20.67;;;12.57;;
52534;SDS011;38443;53.164;5.802;2023-05-15T06:29:40;15.77;;;10.63;;
52534;SDS011;38443;53.164;5.802;2023-05-15T06:32:06;15.40;;;10.23;;
52534;SDS011;38443;53.164;5.802;2023-05-15T06:34:31;18.75;;;10.60;;
52534;SDS011;38443;53.164;5.802;2023-05-15T06:36:57;17.05;;;11.38;;
52534;SDS011;38443;53.164;5.802;2023-05-15T06:39:22;20.95;;;13.20;;
52534;SDS011;38443;53.164;5.802;2023-05-15T06:41:47;15.68;;;11.70;;
52534;SDS011;38443;53.164;5.802;2023-05-15T06:44:13;20.92;;;12.32;;
52534;SDS011;38443;53.164;5.802;2023-05-15T06:46:38;19.48;;;13.02;;
52534;SDS011;38443;53.164;5.802;2023-05-15T06:49:03;16.75;;;12.82;;
52534;SDS011;38443;53.164;5.802;2023-05-15T06:51:29;18.88;;;13.38;;
52534;SDS011;38443;53.164;5.802;2023-05-15T06:53:54;16.77;;;12.82;;
52534;SDS011;38443;53.164;5.802;2023-05-15T06:56:20;18.40;;;12.00;;
52534;SDS011;38443;53.164;5.802;2023-05-15T06:58:45;20.30;;;12.93;;
52534;SDS011;38443;53.164;5.802;2023-05-15T07:01:11;16.10;;;11.40;;
52534;SDS011;38443;53.164;5.802;2023-05-15T07:03:36;16.33;;;11.32;;
52534;SDS011;38443;53.164;5.802;2023-05-15T07:06:02;20.10;;;12.15;;
52534;SDS011;38443;53.164;5.802;2023-05-15T07:08:28;16.60;;;11.70;;
52534;SDS011;38443;53.164;5.802;2023-05-15T07:10:53;16.77;;;10.40;;
52534;SDS011;38443;53.164;5.802;2023-05-15T07:13:19;15.38;;;10.38;;
52534;SDS011;38443;53.164;5.802;2023-05-15T07:15:45;12.68;;;9.82;;
52534;SDS011;38443;53.164;5.802;2023-05-15T07:18:10;14.25;;;9.77;;
52534;SDS011;38443;53.164;5.802;2023-05-15T07:20:36;15.93;;;9.88;;
52534;SDS011;38443;53.164;5.802;2023-05-15T07:23:01;14.30;;;8.82;;
52534;SDS011;38443;53.164;5.802;2023-05-15T07:25:27;12.77;;;8.30;;
52534;SDS011;38443;53.164;5.802;2023-05-15T07:27:53;14.98;;;10.40;;
52534;SDS011;38443;53.164;5.802;2023-05-15T07:30:18;12.98;;;8.43;;
52534;SDS011;38443;53.164;5.802;2023-05-15T07:32:43;12.63;;;8.73;;
52534;SDS011;38443;53.164;5.802;2023-05-15T07:35:09;13.07;;;9.05;;
52534;SDS011;38443;53.164;5.802;2023-05-15T07:37:35;14.93;;;9.82;;
52534;SDS011;38443;53.164;5.802;2023-05-15T07:40:01;12.77;;;9.90;;
52534;SDS011;38443;53.164;5.802;2023-05-15T07:42:27;15.38;;;9.77;;
52534;SDS011;38443;53.164;5.802;2023-05-15T07:44:53;11.48;;;8.15;;
52534;SDS011;38443;53.164;5.802;2023-05-15T07:47:18;12.23;;;8.88;;
52534;SDS011;38443;53.164;5.802;2023-05-15T07:49:43;12.25;;;8.10;;
52534;SDS011;38443;53.164;5.802;2023-05-15T07:52:08;12.60;;;9.35;;
52534;SDS011;38443;53.164;5.802;2023-05-15T07:54:34;12.98;;;8.65;;
52534;SDS011;38443;53.164;5.802;2023-05-15T07:56:59;12.63;;;9.15;;
52534;SDS011;38443;53.164;5.802;2023-05-15T07:59:25;11.27;;;8.18;;
52534;SDS011;38443;53.164;5.802;2023-05-15T08:01:51;12.80;;;8.48;;
52534;SDS011;38443;53.164;5.802;2023-05-15T08:04:16;12.23;;;8.80;;
52534;SDS011;38443;53.164;5.802;2023-05-15T08:06:41;14.45;;;8.90;;
52534;SDS011;38443;53.164;5.802;2023-05-15T08:09:07;23.85;;;14.52;;
52534;SDS011;38443;53.164;5.802;2023-05-15T08:11:33;14.45;;;9.98;;
52534;SDS011;38443;53.164;5.802;2023-05-15T08:13:58;14.20;;;8.55;;
52534;SDS011;38443;53.164;5.802;2023-05-15T08:16:24;13.38;;;9.27;;
52534;SDS011;38443;53.164;5.802;2023-05-15T08:18:49;11.38;;;8.02;;
52534;SDS011;38443;53.164;5.802;2023-05-15T08:21:17;13.82;;;9.43;;
52534;SDS011;38443;53.164;5.802;2023-05-15T08:23:42;12.88;;;9.02;;
52534;SDS011;38443;53.164;5.802;2023-05-15T08:26:08;11.88;;;7.75;;
52534;SDS011;38443;53.164;5.802;2023-05-15T08:28:33;12.00;;;8.10;;
52534;SDS011;38443;53.164;5.802;2023-05-15T08:30:58;11.18;;;8.27;;
52534;SDS011;38443;53.164;5.802;2023-05-15T08:33:24;12.13;;;8.30;;
52534;SDS011;38443;53.164;5.802;2023-05-15T08:35:49;12.32;;;8.65;;
52534;SDS011;38443;53.164;5.802;2023-05-15T08:38:15;10.52;;;8.82;;
52534;SDS011;38443;53.164;5.802;2023-05-15T08:40:41;11.45;;;8.63;;
52534;SDS011;38443;53.164;5.802;2023-05-15T08:43:11;12.40;;;9.00;;
52534;SDS011;38443;53.164;5.802;2023-05-15T08:45:39;13.50;;;8.52;;
52534;SDS011;38443;53.164;5.802;2023-05-15T08:48:09;12.18;;;8.85;;
52534;SDS011;38443;53.164;5.802;2023-05-15T08:50:38;12.27;;;9.45;;
52534;SDS011;38443;53.164;5.802;2023-05-15T08:53:05;13.55;;;9.20;;
52534;SDS011;38443;53.164;5.802;2023-05-15T08:55:31;12.07;;;9.23;;
52534;SDS011;38443;53.164;5.802;2023-05-15T08:57:57;11.35;;;8.77;;
52534;SDS011;38443;53.164;5.802;2023-05-15T09:00:22;11.07;;;9.20;;
52534;SDS011;38443;53.164;5.802;2023-05-15T09:02:49;13.00;;;9.75;;
52534;SDS011;38443;53.164;5.802;2023-05-15T09:05:14;15.88;;;8.88;;
52534;SDS011;38443;53.164;5.802;2023-05-15T09:07:40;12.68;;;9.15;;
52534;SDS011;38443;53.164;5.802;2023-05-15T09:10:09;11.68;;;8.45;;
52534;SDS011;38443;53.164;5.802;2023-05-15T09:12:35;13.48;;;9.43;;
52534;SDS011;38443;53.164;5.802;2023-05-15T09:17:38;17.60;;;9.85;;
52534;SDS011;38443;53.164;5.802;2023-05-15T09:20:04;11.35;;;9.07;;
52534;SDS011;38443;53.164;5.802;2023-05-15T09:22:32;12.70;;;10.20;;
52534;SDS011;38443;53.164;5.802;2023-05-15T09:24:58;16.80;;;11.05;;
52534;SDS011;38443;53.164;5.802;2023-05-15T09:27:23;15.45;;;10.57;;
52534;SDS011;38443;53.164;5.802;2023-05-15T09:29:49;17.13;;;10.63;;
52534;SDS011;38443;53.164;5.802;2023-05-15T09:32:18;17.15;;;11.25;;
52534;SDS011;38443;53.164;5.802;2023-05-15T09:34:44;16.15;;;11.05;;
52534;SDS011;38443;53.164;5.802;2023-05-15T09:37:12;15.30;;;10.25;;
52534;SDS011;38443;53.164;5.802;2023-05-15T09:39:52;13.60;;;10.02;;
52534;SDS011;38443;53.164;5.802;2023-05-15T09:42:18;16.10;;;10.73;;
52534;SDS011;38443;53.164;5.802;2023-05-15T09:44:43;15.13;;;10.60;;
52534;SDS011;38443;53.164;5.802;2023-05-15T09:47:10;14.30;;;10.23;;
52534;SDS011;38443;53.164;5.802;2023-05-15T09:49:37;14.27;;;10.30;;
52534;SDS011;38443;53.164;5.802;2023-05-15T09:52:06;15.55;;;10.65;;
52534;SDS011;38443;53.164;5.802;2023-05-15T09:54:33;17.08;;;10.25;;
52534;SDS011;38443;53.164;5.802;2023-05-15T09:57:06;13.02;;;8.98;;
52534;SDS011;38443;53.164;5.802;2023-05-15T09:59:33;16.02;;;10.65;;
52534;SDS011;38443;53.164;5.802;2023-05-15T10:01:58;15.23;;;9.00;;
52534;SDS011;38443;53.164;5.802;2023-05-15T10:04:24;12.98;;;9.55;;
52534;SDS011;38443;53.164;5.802;2023-05-15T10:06:49;10.30;;;8.50;;
52534;SDS011;38443;53.164;5.802;2023-05-15T10:09:16;9.90;;;7.95;;
52534;SDS011;38443;53.164;5.802;2023-05-15T10:11:42;11.70;;;8.18;;
52534;SDS011;38443;53.164;5.802;2023-05-15T10:14:09;12.50;;;8.40;;
52534;SDS011;38443;53.164;5.802;2023-05-15T10:16:37;15.70;;;8.40;;
52534;SDS011;38443;53.164;5.802;2023-05-15T10:19:04;11.63;;;8.02;;
52534;SDS011;38443;53.164;5.802;2023-05-15T10:21:31;11.18;;;8.38;;
52534;SDS011;38443;53.164;5.802;2023-05-15T10:23:58;12.55;;;8.43;;
52534;SDS011;38443;53.164;5.802;2023-05-15T10:26:40;11.95;;;8.98;;
52534;SDS011;38443;53.164;5.802;2023-05-15T10:29:10;12.40;;;8.73;;
52534;SDS011;38443;53.164;5.802;2023-05-15T10:31:40;11.80;;;7.70;;
52534;SDS011;38443;53.164;5.802;2023-05-15T10:34:06;11.15;;;7.60;;
52534;SDS011;38443;53.164;5.802;2023-05-15T10:36:33;9.93;;;7.93;;
52534;SDS011;38443;53.164;5.802;2023-05-15T10:39:00;12.43;;;7.93;;
52534;SDS011;38443;53.164;5.802;2023-05-15T10:41:27;11.70;;;8.95;;
52534;SDS011;38443;53.164;5.802;2023-05-15T10:43:56;11.20;;;8.13;;
52534;SDS011;38443;53.164;5.802;2023-05-15T10:46:22;11.52;;;7.93;;
52534;SDS011;38443;53.164;5.802;2023-05-15T10:48:49;11.60;;;9.35;;
52534;SDS011;38443;53.164;5.802;2023-05-15T10:51:23;14.35;;;10.18;;
52534;SDS011;38443;53.164;5.802;2023-05-15T10:53:50;12.55;;;9.20;;
52534;SDS011;38443;53.164;5.802;2023-05-15T10:56:16;9.85;;;7.68;;
52534;SDS011;38443;53.164;5.802;2023-05-15T10:58:48;16.70;;;9.20;;
52534;SDS011;38443;53.164;5.802;2023-05-15T11:01:27;10.80;;;9.07;;
52534;SDS011;38443;53.164;5.802;2023-05-15T11:04:12;10.45;;;7.55;;
52534;SDS011;38443;53.164;5.802;2023-05-15T11:06:47;13.52;;;7.85;;
52534;SDS011;38443;53.164;5.802;2023-05-15T11:14:17;10.50;;;7.68;;
52534;SDS011;38443;53.164;5.802;2023-05-15T11:19:21;9.88;;;7.40;;
52534;SDS011;38443;53.164;5.802;2023-05-15T11:21:46;10.13;;;7.25;;
52534;SDS011;38443;53.164;5.802;2023-05-15T11:24:12;13.23;;;9.73;;
52534;SDS011;38443;53.164;5.802;2023-05-15T11:26:40;11.20;;;7.95;;
52534;SDS011;38443;53.164;5.802;2023-05-15T11:29:17;10.90;;;7.90;;
52534;SDS011;38443;53.164;5.802;2023-05-15T11:31:43;11.48;;;7.35;;
52534;SDS011;38443;53.164;5.802;2023-05-15T11:34:08;11.02;;;7.53;;
52534;SDS011;38443;53.164;5.802;2023-05-15T11:36:35;9.73;;;7.03;;
52534;SDS011;38443;53.164;5.802;2023-05-15T11:39:08;10.70;;;7.50;;
52534;SDS011;38443;53.164;5.802;2023-05-15T11:41:35;10.05;;;8.35;;
52534;SDS011;38443;53.164;5.802;2023-05-15T11:44:01;10.57;;;8.52;;
52534;SDS011;38443;53.164;5.802;2023-05-15T11:46:27;14.55;;;10.10;;
52534;SDS011;38443;53.164;5.802;2023-05-15T11:48:53;11.63;;;8.82;;
52534;SDS011;38443;53.164;5.802;2023-05-15T11:51:19;12.57;;;8.77;;
52534;SDS011;38443;53.164;5.802;2023-05-15T11:53:48;11.95;;;8.82;;
52534;SDS011;38443;53.164;5.802;2023-05-15T11:56:18;12.85;;;9.20;;
52534;SDS011;38443;53.164;5.802;2023-05-15T11:58:47;12.70;;;9.15;;
52534;SDS011;38443;53.164;5.802;2023-05-15T12:01:13;14.10;;;8.57;;
52534;SDS011;38443;53.164;5.802;2023-05-15T12:03:38;12.80;;;9.00;;
52534;SDS011;38443;53.164;5.802;2023-05-15T12:06:04;12.48;;;9.65;;
52534;SDS011;38443;53.164;5.802;2023-05-15T12:08:33;12.70;;;8.48;;
52534;SDS011;38443;53.164;5.802;2023-05-15T12:11:01;14.07;;;9.82;;
52534;SDS011;38443;53.164;5.802;2023-05-15T12:13:28;12.32;;;8.93;;
52534;SDS011;38443;53.164;5.802;2023-05-15T12:15:54;12.40;;;9.75;;
52534;SDS011;38443;53.164;5.802;2023-05-15T12:18:21;13.27;;;9.30;;
52534;SDS011;38443;53.164;5.802;2023-05-15T12:20:46;15.45;;;9.55;;
52534;SDS011;38443;53.164;5.802;2023-05-15T12:23:14;12.90;;;9.13;;
52534;SDS011;38443;53.164;5.802;2023-05-15T12:25:40;15.65;;;9.77;;
52534;SDS011;38443;53.164;5.802;2023-05-15T12:28:07;14.43;;;9.98;;
52534;SDS011;38443;53.164;5.802;2023-05-15T12:30:33;13.95;;;9.45;;
52534;SDS011;38443;53.164;5.802;2023-05-15T12:33:02;14.30;;;9.23;;
52534;SDS011;38443;53.164;5.802;2023-05-15T12:35:31;14.60;;;9.02;;
52534;SDS011;38443;53.164;5.802;2023-05-15T12:37:58;14.02;;;8.85;;
52534;SDS011;38443;53.164;5.802;2023-05-15T12:40:24;15.07;;;9.23;;
52534;SDS011;38443;53.164;5.802;2023-05-15T12:42:52;11.70;;;8.77;;
52534;SDS011;38443;53.164;5.802;2023-05-15T12:45:19;12.13;;;8.38;;
52534;SDS011;38443;53.164;5.802;2023-05-15T12:47:46;12.23;;;8.38;;
52534;SDS011;38443;53.164;5.802;2023-05-15T12:50:13;12.73;;;8.25;;
52534;SDS011;38443;53.164;5.802;2023-05-15T12:52:40;12.85;;;8.48;;
52534;SDS011;38443;53.164;5.802;2023-05-15T12:55:14;14.35;;;9.00;;
52534;SDS011;38443;53.164;5.802;2023-05-15T12:57:40;12.43;;;8.18;;
52534;SDS011;38443;53.164;5.802;2023-05-15T13:00:08;12.75;;;8.18;;
52534;SDS011;38443;53.164;5.802;2023-05-15T13:02:35;13.43;;;8.23;;
52534;SDS011;38443;53.164;5.802;2023-05-15T13:05:03;12.95;;;8.82;;
52534;SDS011;38443;53.164;5.802;2023-05-15T13:07:29;13.27;;;8.40;;
52534;SDS011;38443;53.164;5.802;2023-05-15T13:10:04;11.75;;;8.02;;
52534;SDS011;38443;53.164;5.802;2023-05-15T13:12:34;13.60;;;8.48;;
52534;SDS011;38443;53.164;5.802;2023-05-15T13:15:00;13.73;;;8.75;;
52534;SDS011;38443;53.164;5.802;2023-05-15T13:17:28;11.77;;;8.48;;
52534;SDS011;38443;53.164;5.802;2023-05-15T13:19:54;13.30;;;8.25;;
52534;SDS011;38443;53.164;5.802;2023-05-15T13:22:19;12.98;;;8.13;;
52534;SDS011;38443;53.164;5.802;2023-05-15T13:24:45;11.52;;;7.70;;
52534;SDS011;38443;53.164;5.802;2023-05-15T13:27:10;11.25;;;7.65;;
52534;SDS011;38443;53.164;5.802;2023-05-15T13:29:36;11.32;;;8.00;;
52534;SDS011;38443;53.164;5.802;2023-05-15T13:32:01;9.40;;;7.25;;
52534;SDS011;38443;53.164;5.802;2023-05-15T13:34:26;13.05;;;7.97;;
52534;SDS011;38443;53.164;5.802;2023-05-15T13:36:51;11.02;;;7.95;;
52534;SDS011;38443;53.164;5.802;2023-05-15T13:39:17;11.35;;;8.00;;
52534;SDS011;38443;53.164;5.802;2023-05-15T13:41:43;13.60;;;8.70;;
52534;SDS011;38443;53.164;5.802;2023-05-15T13:44:08;14.43;;;7.80;;
52534;SDS011;38443;53.164;5.802;2023-05-15T13:46:33;13.27;;;9.07;;
52534;SDS011;38443;53.164;5.802;2023-05-15T13:48:59;12.88;;;8.82;;
52534;SDS011;38443;53.164;5.802;2023-05-15T13:51:25;13.27;;;8.35;;
52534;SDS011;38443;53.164;5.802;2023-05-15T13:53:50;12.85;;;8.48;;
52534;SDS011;38443;53.164;5.802;2023-05-15T13:56:15;12.75;;;8.85;;
52534;SDS011;38443;53.164;5.802;2023-05-15T13:58:41;12.23;;;8.55;;
52534;SDS011;38443;53.164;5.802;2023-05-15T14:01:06;13.95;;;8.75;;
52534;SDS011;38443;53.164;5.802;2023-05-15T14:03:32;15.38;;;10.00;;
52534;SDS011;38443;53.164;5.802;2023-05-15T14:05:58;14.88;;;9.73;;
52534;SDS011;38443;53.164;5.802;2023-05-15T14:08:23;13.98;;;9.40;;
52534;SDS011;38443;53.164;5.802;2023-05-15T14:10:49;14.07;;;9.50;;
52534;SDS011;38443;53.164;5.802;2023-05-15T14:13:14;14.57;;;9.30;;
52534;SDS011;38443;53.164;5.802;2023-05-15T14:15:39;14.85;;;10.07;;
52534;SDS011;38443;53.164;5.802;2023-05-15T14:18:04;16.02;;;11.02;;
52534;SDS011;38443;53.164;5.802;2023-05-15T14:20:30;15.95;;;9.65;;
52534;SDS011;38443;53.164;5.802;2023-05-15T14:22:55;14.07;;;9.15;;
52534;SDS011;38443;53.164;5.802;2023-05-15T14:25:21;13.40;;;9.07;;
52534;SDS011;38443;53.164;5.802;2023-05-15T14:27:46;14.77;;;9.90;;
52534;SDS011;38443;53.164;5.802;2023-05-15T14:30:11;15.27;;;9.60;;
52534;SDS011;38443;53.164;5.802;2023-05-15T14:32:37;13.40;;;9.60;;
52534;SDS011;38443;53.164;5.802;2023-05-15T14:35:03;14.60;;;9.80;;
52534;SDS011;38443;53.164;5.802;2023-05-15T14:37:28;12.85;;;8.50;;
52534;SDS011;38443;53.164;5.802;2023-05-15T14:39:54;12.35;;;8.57;;
52534;SDS011;38443;53.164;5.802;2023-05-15T14:42:19;13.57;;;9.30;;
52534;SDS011;38443;53.164;5.802;2023-05-15T14:44:45;13.10;;;8.55;;
52534;SDS011;38443;53.164;5.802;2023-05-15T14:47:11;13.38;;;7.95;;
52534;SDS011;38443;53.164;5.802;2023-05-15T14:49:37;12.32;;;7.72;;
52534;SDS011;38443;53.164;5.802;2023-05-15T14:52:04;13.30;;;8.70;;
52534;SDS011;38443;53.164;5.802;2023-05-15T14:54:30;11.63;;;8.38;;
52534;SDS011;38443;53.164;5.802;2023-05-15T14:56:56;11.18;;;7.22;;
52534;SDS011;38443;53.164;5.802;2023-05-15T14:59:22;10.60;;;7.15;;
52534;SDS011;38443;53.164;5.802;2023-05-15T15:01:48;11.02;;;7.20;;
52534;SDS011;38443;53.164;5.802;2023-05-15T15:04:13;12.73;;;7.63;;
52534;SDS011;38443;53.164;5.802;2023-05-15T15:06:39;10.35;;;7.30;;
52534;SDS011;38443;53.164;5.802;2023-05-15T15:09:05;10.85;;;6.90;;
52534;SDS011;38443;53.164;5.802;2023-05-15T15:11:30;8.82;;;6.03;;
52534;SDS011;38443;53.164;5.802;2023-05-15T15:13:55;11.82;;;7.90;;
52534;SDS011;38443;53.164;5.802;2023-05-15T15:16:21;10.90;;;7.63;;
52534;SDS011;38443;53.164;5.802;2023-05-15T15:18:46;11.50;;;6.88;;
52534;SDS011;38443;53.164;5.802;2023-05-15T15:21:11;12.30;;;8.27;;
52534;SDS011;38443;53.164;5.802;2023-05-15T15:23:37;10.18;;;7.47;;
52534;SDS011;38443;53.164;5.802;2023-05-15T15:26:02;11.63;;;7.25;;
52534;SDS011;38443;53.164;5.802;2023-05-15T15:28:28;9.52;;;6.70;;
52534;SDS011;38443;53.164;5.802;2023-05-15T15:30:57;9.77;;;6.57;;
52534;SDS011;38443;53.164;5.802;2023-05-15T15:33:23;9.35;;;6.68;;
52534;SDS011;38443;53.164;5.802;2023-05-15T15:35:48;11.77;;;6.47;;
52534;SDS011;38443;53.164;5.802;2023-05-15T15:38:14;8.25;;;6.15;;
52534;SDS011;38443;53.164;5.802;2023-05-15T15:40:40;8.30;;;5.65;;
52534;SDS011;38443;53.164;5.802;2023-05-15T15:43:05;10.52;;;5.72;;
52534;SDS011;38443;53.164;5.802;2023-05-15T15:45:30;8.15;;;5.30;;
52534;SDS011;38443;53.164;5.802;2023-05-15T15:47:56;8.90;;;5.43;;
52534;SDS011;38443;53.164;5.802;2023-05-15T15:50:21;8.98;;;5.38;;
52534;SDS011;38443;53.164;5.802;2023-05-15T15:52:46;8.13;;;5.22;;
52534;SDS011;38443;53.164;5.802;2023-05-15T15:55:11;8.00;;;5.72;;
52534;SDS011;38443;53.164;5.802;2023-05-15T15:57:37;9.25;;;5.82;;
52534;SDS011;38443;53.164;5.802;2023-05-15T16:00:02;8.65;;;6.07;;
52534;SDS011;38443;53.164;5.802;2023-05-15T16:02:29;9.32;;;6.07;;
52534;SDS011;38443;53.164;5.802;2023-05-15T16:04:54;10.75;;;6.78;;
52534;SDS011;38443;53.164;5.802;2023-05-15T16:07:20;9.95;;;6.07;;
52534;SDS011;38443;53.164;5.802;2023-05-15T16:09:45;9.60;;;6.40;;
52534;SDS011;38443;53.164;5.802;2023-05-15T16:12:11;10.05;;;6.10;;
52534;SDS011;38443;53.164;5.802;2023-05-15T16:14:36;10.95;;;6.20;;
52534;SDS011;38443;53.164;5.802;2023-05-15T16:17:02;8.95;;;5.75;;
52534;SDS011;38443;53.164;5.802;2023-05-15T16:19:27;9.07;;;5.55;;
52534;SDS011;38443;53.164;5.802;2023-05-15T16:21:52;10.32;;;5.93;;
52534;SDS011;38443;53.164;5.802;2023-05-15T16:24:18;8.88;;;5.72;;
52534;SDS011;38443;53.164;5.802;2023-05-15T16:26:43;11.95;;;6.43;;
52534;SDS011;38443;53.164;5.802;2023-05-15T16:29:08;8.20;;;6.20;;
52534;SDS011;38443;53.164;5.802;2023-05-15T16:31:34;9.57;;;5.65;;
52534;SDS011;38443;53.164;5.802;2023-05-15T16:34:00;11.80;;;6.85;;